tititudorancea.com
Station Historical Data
Daily Summary for September 22, 2018 Units:  Metric    English   Both
« Previous Day
Next Day »
Daily Weekly Monthly Yearly Custom
  High: Low: Average:
Temperature: -17.8 °C 1.1 °C 9.9 °C
Dew Point: -17.8 °C 0.3 °C 6.6 °C
Humidity: Humidity % 58 % 81 %
Wind Speed: 0 km/h 0 km/h 6.9 km/h
Wind Gust: 0 km/h - -
Wind:- - SW
Pressure: 0 hPa 1024.6 hPa -
Precipitation: 0.2 mm    
Historical Graphs
 
 
Ararat weather Find more about Weather in Ararat, AU


 



 


Tabular Data for September 22, 2018
Time Temperature Dew Point Pressure Wind Wind Speed Wind Gust Humidity Rainfall Rate (Hourly)
-17.8 °C -17.8 °C 0 hPa Calm     Humidity % 0 mm
00:04 5.5 °C 4.2 °C 1026.3 hPa Calm     91 % 0 mm
00:09 5.4 °C 4.1 °C 1026.3 hPa Calm     91 % 0 mm
00:14 5.4 °C 4.1 °C 1026.3 hPa Calm     91 % 0 mm
00:19 5.3 °C 3.9 °C 1026.3 hPa Calm     91 % 0 mm
00:24 5.1 °C 3.8 °C 1026.3 hPa Calm     91 % 0 mm
00:29 4.9 °C 3.6 °C 1026 hPa Calm     91 % 0 mm
00:34 4.9 °C 4.5 °C 1026 hPa Calm     97 % 0 mm
00:39 4.8 °C 3.5 °C 1026 hPa Calm     91 % 0 mm
00:44 4.7 °C 3.4 °C 1026 hPa Calm     91 % 0 mm
00:49 4.6 °C 3.2 °C 1026 hPa NW 1.9 km/h 0.8 km/h 91 % 0 mm
00:54 4.3 °C 2.8 °C 1026 hPa Calm     90 % 0 mm
00:59 4.2 °C 2.8 °C 1026 hPa Calm     91 % 0 mm
01:04 4.1 °C 2.8 °C 1026 hPa Calm     91 % 0 mm
01:09 3.9 °C 2.6 °C 1026 hPa Calm     91 % 0 mm
01:14 3.7 °C 2.4 °C 1026 hPa North 4.8 km/h 1.6 km/h 91 % 0 mm
01:19 3.5 °C 2.2 °C 1026 hPa NW 5.6 km/h 3.7 km/h 91 % 0 mm
01:24 3.3 °C 1.9 °C 1026 hPa North 1.9 km/h 1 km/h 91 % 0 mm
01:29 3 °C 1.7 °C 1026 hPa Calm     91 % 0 mm
01:34 2.9 °C 1.6 °C 1026 hPa Calm     91 % 0 mm
01:39 2.8 °C 1.4 °C 1026 hPa Calm     91 % 0 mm
01:44 2.7 °C 1.5 °C 1026 hPa Calm     92 % 0 mm
01:49 2.6 °C 1.4 °C 1026 hPa NW 3.7 km/h 3.4 km/h 92 % 0 mm
01:54 2.7 °C 1.7 °C 1026 hPa North 3.7 km/h 1.3 km/h 93 % 0 mm
01:59 2.8 °C 1.8 °C 1026 hPa Calm     93 % 0 mm
02:04 2.8 °C 1.8 °C 1026 hPa Calm     93 % 0 mm
02:09 2.8 °C 1.8 °C 1026 hPa Calm     93 % 0 mm
02:14 2.9 °C 1.9 °C 1026 hPa Calm     93 % 0 mm
02:19 2.9 °C 1.9 °C 1025.6 hPa Calm     93 % 0 mm
02:24 2.9 °C 1.9 °C 1025.6 hPa Calm     93 % 0 mm
02:29 2.8 °C 1.8 °C 1025.6 hPa Calm     93 % 0 mm
02:34 2.8 °C 1.8 °C 1025.6 hPa Calm     93 % 0 mm
02:39 2.8 °C 1.8 °C 1025.6 hPa Calm     93 % 0 mm
02:44 2.9 °C 2 °C 1025.3 hPa Calm     94 % 0 mm
02:49 2.8 °C 1.8 °C 1025.3 hPa Calm     93 % 0 mm
02:54 2.8 °C 1.8 °C 1025.3 hPa Calm     93 % 0 mm
02:59 2.8 °C 1.8 °C 1025.3 hPa Calm     93 % 0 mm
03:04 2.7 °C 1.7 °C 1024.9 hPa Calm     93 % 0 mm
03:09 2.5 °C 1.5 °C 1024.9 hPa Calm     93 % 0 mm
03:14 2.5 °C 1.5 °C 1024.9 hPa Calm     93 % 0 mm
03:19 2.4 °C 1.4 °C 1024.9 hPa Calm     93 % 0 mm
03:24 2.4 °C 1.4 °C 1024.9 hPa Calm     93 % 0 mm
03:29 2.4 °C 1.4 °C 1024.9 hPa Calm     93 % 0 mm
03:34 2.4 °C 1.4 °C 1024.9 hPa Calm     93 % 0 mm
03:39 2.3 °C 1.3 °C 1024.9 hPa Calm     93 % 0 mm
03:44 2.4 °C 1.5 °C 1024.9 hPa Calm     94 % 0 mm
03:49 2.5 °C 1.6 °C 1024.9 hPa Calm     94 % 0 mm
03:54 2.4 °C 1.6 °C 1024.9 hPa Calm     94 % 0 mm
03:59 2.4 °C 1.4 °C 1024.9 hPa Calm     93 % 0 mm
04:04 2.3 °C 1.3 °C 1024.9 hPa Calm     93 % 0 mm
04:09 2.2 °C 1.2 °C 1025.3 hPa Calm     93 % 0 mm
04:14 2.2 °C 1.2 °C 1025.3 hPa Calm     93 % 0 mm
04:19 2.1 °C 1.1 °C 1025.3 hPa Calm     93 % 0 mm
04:24 2 °C 1 °C 1025.3 hPa Calm     93 % 0 mm
04:29 2.1 °C 1.2 °C 1025.3 hPa Calm     94 % 0 mm
04:34 2 °C 1.1 °C 1024.9 hPa Calm     94 % 0 mm
04:39 1.9 °C 0.9 °C 1025.3 hPa Calm     93 % 0 mm
04:44 1.7 °C 0.7 °C 1025.3 hPa Calm     93 % 0 mm
04:49 1.7 °C 0.7 °C 1025.3 hPa Calm     93 % 0 mm
04:54 1.6 °C 0.7 °C 1025.3 hPa Calm     94 % 0 mm
04:59 1.6 °C 0.7 °C 1025.3 hPa Calm     94 % 0 mm
05:04 1.5 °C 0.5 °C 1025.3 hPa Calm     93 % 0 mm
05:09 1.3 °C 0.3 °C 1025.3 hPa Calm     93 % 0 mm
05:14 1.3 °C 0.3 °C 1025.6 hPa Calm     93 % 0 mm
05:19 1.2 °C 0.3 °C 1025.3 hPa Calm     94 % 0 mm
05:24 1.2 °C 0.3 °C 1025.6 hPa North 5.6 km/h 2.7 km/h 94 % 0 mm
05:29 1.2 °C 0.3 °C 1025.3 hPa Calm     94 % 0 mm
05:34 1.1 °C 0.3 °C 1025.3 hPa NW 1.9 km/h 0.2 km/h 94 % 0.2 mm
05:39 1.2 °C 0.4 °C 1025.6 hPa NW 3.7 km/h 1.4 km/h 94 % 0.2 mm
05:44 1.3 °C 0.4 °C 1025.6 hPa North 1.9 km/h   94 % 0.2 mm
05:49 1.3 °C 0.4 °C 1025.6 hPa Calm     94 % 0.2 mm
05:54 1.3 °C 0.4 °C 1025.6 hPa Calm     94 % 0.2 mm
05:59 1.3 °C 0.4 °C 1025.6 hPa Calm     94 % 0.2 mm
06:04 1.2 °C 0.4 °C 1025.6 hPa Calm     94 % 0.2 mm
06:09 1.4 °C 0.7 °C 1025.6 hPa Calm     95 % 0.2 mm
06:14 1.7 °C 1 °C 1025.6 hPa Calm     95 % 0.2 mm
06:19 1.8 °C 1.1 °C 1025.6 hPa Calm     95 % 0.2 mm
06:24 1.8 °C 0.9 °C 1025.6 hPa Calm     94 % 0.2 mm
06:29 1.8 °C 0.9 °C 1026 hPa Calm     94 % 0.2 mm
06:34 1.7 °C 0.8 °C 1026 hPa Calm     94 % 0 mm
06:39 1.7 °C 0.8 °C 1026 hPa Calm     94 % 0 mm
06:44 1.8 °C 1.1 °C 1026 hPa Calm     95 % 0 mm
06:49 2 °C 1.3 °C 1026 hPa Calm     95 % 0 mm
06:54 2.3 °C 1.6 °C 1026 hPa North 1.9 km/h 0.8 km/h 95 % 0 mm
06:59 2.6 °C 1.9 °C 1026 hPa Calm     95 % 0 mm
07:04 2.9 °C 2.2 °C 1026 hPa Calm     95 % 0 mm
07:09 3.4 °C 2.7 °C 1026 hPa Calm     95 % 0 mm
07:14 4 °C 3.4 °C 1026 hPa Calm     96 % 0 mm
07:19 4.7 °C 4.1 °C 1026.3 hPa Calm     96 % 0 mm
07:24 5.3 °C 4.7 °C 1026.3 hPa NW 3.7 km/h 2.3 km/h 96 % 0 mm
07:29 5.3 °C 4.6 °C 1026.3 hPa NW 5.6 km/h 2.4 km/h 95 % 0 mm
07:34 5.2 °C 4.3 °C 1026.3 hPa NW 3.7 km/h 2.3 km/h 94 % 0 mm
07:39 5.4 °C 4.7 °C 1026.3 hPa NW 3.7 km/h   95 % 0 mm
07:44 5.7 °C 5 °C 1026.6 hPa NW 5.6 km/h 0.5 km/h 95 % 0 mm
07:49 6.3 °C 5.7 °C 1026.6 hPa NW 9.7 km/h 1.4 km/h 96 % 0 mm
07:54 7.4 °C 6.8 °C 1026.6 hPa NW 5.6 km/h 1.9 km/h 96 % 0 mm
07:59 8.1 °C 7.4 °C 1026.6 hPa NW 3.7 km/h 1.8 km/h 96 % 0 mm
08:04 8.4 °C 7.8 °C 1026.6 hPa NW 5.6 km/h 2.3 km/h 96 % 0 mm
08:09 8.7 °C 7.9 °C 1027 hPa NW 5.6 km/h 4.3 km/h 95 % 0 mm
08:14 9 °C 8.1 °C 1027 hPa NW 5.6 km/h 1.3 km/h 94 % 0 mm
08:19 9.3 °C 8.4 °C 1027 hPa NW 7.4 km/h 5.5 km/h 94 % 0 mm
08:24 9.6 °C 8.5 °C 1026.6 hPa NW 13 km/h 6.3 km/h 93 % 0 mm
08:29 9.9 °C 8.7 °C 1026.6 hPa NW 9.3 km/h 6.8 km/h 92 % 0 mm
08:34 10.2 °C 8.8 °C 1027 hPa North 13 km/h 10.1 km/h 91 % 0 mm
08:39 10.4 °C 8.7 °C 1027 hPa NNW 9.7 km/h 7.4 km/h 89 % 0 mm
08:44 10.7 °C 8.7 °C 1027 hPa NNW 11.1 km/h 11.1 km/h 87 % 0 mm
08:49 10.8 °C 8.3 °C 1027 hPa North 13 km/h 6.4 km/h 85 % 0 mm
08:54 11 °C 8.6 °C 1027 hPa NNW 9.3 km/h 8 km/h 85 % 0 mm
08:59 11.2 °C 8.7 °C 1027 hPa NNW 9.3 km/h 2.3 km/h 85 % 0 mm
09:04 11.4 °C 8.7 °C 1027 hPa NNW 9.3 km/h 4.5 km/h 83 % 0 mm
09:09 11.6 °C 8.7 °C 1027 hPa NNW 7.4 km/h 6 km/h 82 % 0 mm
09:14 11.9 °C 8.8 °C 1027 hPa NNW 5.6 km/h 4.5 km/h 81 % 0 mm
09:19 12.2 °C 8.9 °C 1027 hPa North 5.6 km/h 0.5 km/h 80 % 0 mm
09:24 12.5 °C 8.8 °C 1027 hPa NNW 7.4 km/h 6.4 km/h 78 % 0 mm
09:29 12.7 °C 9 °C 1027 hPa NNW 6.4 km/h 4.7 km/h 78 % 0 mm
09:34 13.1 °C 9.2 °C 1027 hPa NNW 8 km/h 3.7 km/h 77 % 0 mm
09:39 13.4 °C 9.1 °C 1027 hPa NNW 9.3 km/h 6.1 km/h 75 % 0 mm
09:44 13.8 °C 9.2 °C 1027 hPa NNW 7.4 km/h 2.1 km/h 74 % 0 mm
09:49 14.1 °C 9.1 °C 1027 hPa North 6.4 km/h 4.7 km/h 72 % 0 mm
09:54 14.3 °C 8.9 °C 1027 hPa NNW 5.6 km/h 5.5 km/h 70 % 0 mm
09:59 14.3 °C 9.3 °C 1027.3 hPa South 13 km/h 7.2 km/h 72 % 0 mm
10:04 14 °C 9.4 °C 1027.3 hPa South 11.1 km/h 9.2 km/h 74 % 0 mm
10:09 13.7 °C 9.4 °C 1027 hPa South 6.4 km/h 2.9 km/h 75 % 0 mm
10:14 13.8 °C 9.5 °C 1027 hPa South 7.4 km/h 4.2 km/h 75 % 0 mm
10:19 14 °C 9.6 °C 1027 hPa South 9.7 km/h 8 km/h 75 % 0 mm
10:24 14 °C 9.6 °C 1027 hPa South 5.6 km/h 0.6 km/h 75 % 0 mm
10:29 14.6 °C 10 °C 1027 hPa South 5.6 km/h 6.8 km/h 74 % 0 mm
10:34 15.4 °C 10.4 °C 1027 hPa South 5.6 km/h 2.3 km/h 72 % 0 mm
10:39 15.3 °C 9.9 °C 1027 hPa South 7.4 km/h 6.1 km/h 70 % 0 mm
10:44 15.1 °C 9.2 °C 1027 hPa SSW 9.7 km/h 6.4 km/h 68 % 0 mm
10:49 14.8 °C 8.9 °C 1026.6 hPa SSW 13 km/h 9.8 km/h 68 % 0 mm
10:54 14.6 °C 8.8 °C 1026.6 hPa SSW 5.6 km/h 3.1 km/h 68 % 0 mm
10:59 14.8 °C 8.9 °C 1027 hPa SSW 12.9 km/h 8.7 km/h 68 % 0 mm
11:04 14.9 °C 9.1 °C 1026.6 hPa SSW 8 km/h 5.5 km/h 68 % 0 mm
11:09 15.2 °C 9.6 °C 1026.6 hPa SSW 11.1 km/h 7.9 km/h 69 % 0 mm
11:14 15.4 °C 9.1 °C 1026.6 hPa SSW 6.4 km/h 3.1 km/h 66 % 0 mm
11:19 16.1 °C 9.9 °C 1026.3 hPa SSW 5.6 km/h 5.3 km/h 67 % 0 mm
11:24 16.6 °C 10 °C 1026.3 hPa SSW 7.4 km/h 5.6 km/h 65 % 0 mm
11:29 16.3 °C 9.9 °C 1026.3 hPa SSW 8 km/h 7.2 km/h 66 % 0 mm
11:34 16.6 °C 10.2 °C 1026.3 hPa South 11.1 km/h 9.7 km/h 66 % 0 mm
11:39 16.4 °C 10.1 °C 1026.3 hPa South 3.7 km/h 2.3 km/h 66 % 0 mm
11:44 16.6 °C 9.7 °C 1026.3 hPa South 5.6 km/h 3.2 km/h 64 % 0 mm
11:49 16.9 °C 10.5 °C 1026.3 hPa South 5.6 km/h 3.9 km/h 66 % 0 mm
11:54 17.1 °C 10.2 °C 1026.3 hPa SSE 9.3 km/h 6.6 km/h 64 % 0 mm
11:59 16.8 °C 10.2 °C 1026.6 hPa SSE 14.8 km/h 12.7 km/h 65 % 0 mm
12:04 16.2 °C 9.8 °C 1026.6 hPa South 18.5 km/h 11.4 km/h 66 % 0 mm
12:09 15.7 °C 9.6 °C 1026.6 hPa South 18.5 km/h 16.6 km/h 67 % 0 mm
12:14 15.4 °C 10 °C 1026.6 hPa South 16.7 km/h 11.4 km/h 70 % 0 mm
12:19 15.7 °C 10.2 °C 1026.6 hPa South 16.7 km/h 13.5 km/h 70 % 0 mm
12:24 15.7 °C 10 °C 1026.6 hPa SSE 16.7 km/h 10.8 km/h 69 % 0 mm
12:29 15.6 °C 9.7 °C 1026.6 hPa South 16.7 km/h 11.6 km/h 68 % 0 mm
12:34 15.6 °C 9.7 °C 1026.3 hPa SSW 18.5 km/h 10.1 km/h 68 % 0 mm
12:39 15.5 °C 9.4 °C 1026.3 hPa SSW 14.8 km/h 6 km/h 67 % 0 mm
12:44 15.7 °C 9.8 °C 1026 hPa South 16.1 km/h 5.3 km/h 68 % 0 mm
12:49 15.8 °C 9.5 °C 1026 hPa South 13 km/h 7.1 km/h 66 % 0 mm
12:54 15.9 °C 9.1 °C 1025.6 hPa South 7.4 km/h 5 km/h 64 % 0 mm
12:59 16.2 °C 9.8 °C 1025.6 hPa SSW 14.8 km/h 7.6 km/h 66 % 0 mm
13:04 16.4 °C 9.1 °C 1025.6 hPa SSW 5.6 km/h 4.7 km/h 62 % 0 mm
13:09 16.5 °C 8.9 °C 1025.3 hPa SSW 9.3 km/h 7.4 km/h 61 % 0 mm
13:14 16.9 °C 9.6 °C 1025.3 hPa SSW 7.4 km/h 6.9 km/h 62 % 0 mm
13:19 17.3 °C 9.2 °C 1024.9 hPa SSW 5.6 km/h 1.3 km/h 59 % 0 mm
13:24 17.9 °C 9.8 °C 1024.9 hPa SSW 7.4 km/h 6.6 km/h 59 % 0 mm
13:29 18.1 °C 9.9 °C 1024.9 hPa South 11.3 km/h 5.6 km/h 59 % 0 mm
13:34 18.1 °C 9.7 °C 1024.9 hPa South 7.4 km/h 7.6 km/h 58 % 0 mm
13:39 18.1 °C 10.2 °C 1024.9 hPa SSE 11.3 km/h 11.3 km/h 60 % 0 mm
13:44 17.6 °C 10 °C 1024.9 hPa ESE 11.1 km/h 9.2 km/h 61 % 0 mm
13:49 17.6 °C 10.2 °C 1024.9 hPa SSE 16.7 km/h 8.4 km/h 62 % 0 mm
13:54 17.2 °C 10.3 °C 1024.9 hPa SSE 18.5 km/h 12.4 km/h 64 % 0 mm
13:59 17.1 °C 10.2 °C 1024.9 hPa SE 18.5 km/h 11.6 km/h 64 % 0 mm
14:04 17.2 °C 10.8 °C 1024.9 hPa SE 16.1 km/h 11.9 km/h 66 % 0 mm
14:09 17.2 °C 10.1 °C 1024.9 hPa SE 14.8 km/h 6.4 km/h 63 % 0 mm
14:14 17.2 °C 10.1 °C 1024.9 hPa SE 18.5 km/h 14.5 km/h 63 % 0 mm
14:19 17.2 °C 10.3 °C 1024.9 hPa SSE 18.5 km/h 10.8 km/h 64 % 0 mm
14:24 17.2 °C 10.3 °C 1024.9 hPa SSE 13 km/h 10.8 km/h 64 % 0 mm
14:29 17 °C 10.4 °C 1024.9 hPa South 18.5 km/h 10.9 km/h 65 % 0 mm
14:34 17.1 °C 10.2 °C 1024.9 hPa SSE 13 km/h 8 km/h 64 % 0 mm
14:39 17.1 °C 10.2 °C 1024.6 hPa South 18.5 km/h 10.9 km/h 64 % 0 mm
14:44 17.3 °C 10.7 °C 1024.9 hPa South 18.5 km/h 13.7 km/h 65 % 0 mm
14:49 17.2 °C 10.3 °C 1024.6 hPa South 19.3 km/h 15 km/h 64 % 0 mm
14:54 16.9 °C 10.1 °C 1024.6 hPa South 22.2 km/h 15.3 km/h 64 % 0 mm
14:59 16.8 °C 10.2 °C 1024.6 hPa South 18.5 km/h 10.3 km/h 65 % 0 mm
15:04 16.9 °C 10.3 °C 1024.6 hPa South 17.7 km/h 12.7 km/h 65 % 0 mm
15:09 16.7 °C 10.1 °C 1024.6 hPa SSE 16.7 km/h 15 km/h 65 % 0 mm
15:14 16.4 °C 9.8 °C 1024.6 hPa SSE 20.4 km/h 12.4 km/h 65 % 0 mm
15:19 16.4 °C 10.1 °C 1024.6 hPa South 16.7 km/h 10.8 km/h 66 % 0 mm
15:24 16.4 °C 10 °C 1024.6 hPa SSE 14.8 km/h 11.6 km/h 66 % 0 mm
15:29 16.3 °C 9.9 °C 1024.6 hPa South 22.2 km/h 13 km/h 66 % 0 mm
15:34 16.2 °C 9.6 °C 1024.6 hPa South 18.5 km/h 12.2 km/h 65 % 0 mm
15:39 16.3 °C 9.7 °C 1024.6 hPa SSE 14.8 km/h 10.6 km/h 65 % 0 mm
15:44 16.2 °C 9.4 °C 1024.6 hPa South 20.4 km/h 10.3 km/h 64 % 0 mm
15:49 16.1 °C 9.2 °C 1024.6 hPa South 16.7 km/h 10.8 km/h 64 % 0 mm
15:54 15.8 °C 9.3 °C 1024.6 hPa South 20.4 km/h 10.3 km/h 65 % 0 mm
15:59 15.8 °C 9.4 °C 1024.6 hPa SSW 22.2 km/h 16.3 km/h 66 % 0 mm
16:04 15.8 °C 9.5 °C 1024.6 hPa SSW 14.8 km/h 8.7 km/h 66 % 0 mm
16:09 15.9 °C 9.6 °C 1024.6 hPa South 14.8 km/h 14.3 km/h 66 % 0 mm
16:14 15.8 °C 9.4 °C 1024.6 hPa South 18.5 km/h 11.3 km/h 66 % 0 mm
16:19 15.8 °C 9.4 °C 1024.6 hPa South 19.3 km/h 10.3 km/h 66 % 0 mm
16:24 15.8 °C 9.7 °C 1024.6 hPa South 11.1 km/h 9 km/h 67 % 0 mm
16:29 15.8 °C 9.4 °C 1024.6 hPa South 18.5 km/h 12.2 km/h 66 % 0 mm
16:34 15.7 °C 9.1 °C 1024.9 hPa South 22.2 km/h 11.7 km/h 65 % 0 mm
16:39 15.6 °C 9.2 °C 1024.9 hPa South 18.5 km/h 14.2 km/h 66 % 0 mm
16:44 15.5 °C 8.9 °C 1024.9 hPa SSW 22.2 km/h 17.9 km/h 65 % 0 mm
16:49 15.5 °C 8.9 °C 1024.9 hPa North 20.4 km/h 13.8 km/h 65 % 0 mm
16:54 15.5 °C 9.2 °C 1024.9 hPa SSW 14.8 km/h 11.7 km/h 66 % 0 mm
16:59 15.5 °C 9.4 °C 1024.9 hPa SSW 11.1 km/h 9.3 km/h 67 % 0 mm
17:04 15.3 °C 8.9 °C 1024.9 hPa SSW 18.5 km/h 13.5 km/h 66 % 0 mm
17:09 15.1 °C 9 °C 1025.3 hPa South 11.1 km/h 7.1 km/h 67 % 0 mm
17:14 15.1 °C 8.9 °C 1025.3 hPa South 14.8 km/h 10 km/h 67 % 0 mm
17:19 14.8 °C 8.8 °C 1025.3 hPa South 14.8 km/h 10 km/h 67 % 0 mm
17:24 14.8 °C 8.7 °C 1025.3 hPa South 13 km/h 3.1 km/h 67 % 0 mm
17:29 14.6 °C 8.8 °C 1025.3 hPa South 11.1 km/h 5.6 km/h 68 % 0 mm
17:34 14.5 °C 8.7 °C 1025.3 hPa South 6.4 km/h 2.7 km/h 68 % 0 mm
17:39 14.4 °C 8.8 °C 1025.3 hPa South 8 km/h 6.6 km/h 69 % 0 mm
17:44 14.3 °C 8.9 °C 1025.6 hPa South 16.7 km/h 9.8 km/h 70 % 0 mm
17:49 14.2 °C 8.8 °C 1025.6 hPa South 14.8 km/h 9.8 km/h 70 % 0 mm
17:54 13.9 °C 8.8 °C 1025.6 hPa South 11.1 km/h 5.1 km/h 71 % 0 mm
17:59 13.8 °C 8.8 °C 1025.6 hPa South 9.3 km/h 6.1 km/h 72 % 0 mm
18:04 13.7 °C 8.7 °C 1025.6 hPa South 9.7 km/h 4.3 km/h 72 % 0 mm
18:09 13.6 °C 8.8 °C 1025.6 hPa South 7.4 km/h 3.9 km/h 73 % 0 mm
18:14 13.4 °C 8.7 °C 1025.6 hPa South 5.6 km/h 3.9 km/h 73 % 0 mm
18:19 13.2 °C 8.7 °C 1026 hPa South 5.6 km/h 2.3 km/h 74 % 0 mm
18:24 13.1 °C 8.6 °C 1026 hPa South 9.3 km/h 6.9 km/h 74 % 0 mm
18:29 12.9 °C 8.6 °C 1026 hPa South 13 km/h 5.3 km/h 75 % 0 mm
18:34 12.8 °C 8.4 °C 1026 hPa South 9.3 km/h 4.2 km/h 75 % 0 mm
18:39 12.7 °C 8.6 °C 1026 hPa South 5.6 km/h 2.7 km/h 76 % 0 mm
18:44 12.6 °C 8.4 °C 1026 hPa South 5.6 km/h 1.1 km/h 76 % 0 mm
18:49 12.4 °C 8.3 °C 1026 hPa South 5.6 km/h 0.6 km/h 76 % 0 mm
18:54 12.2 °C 8.3 °C 1026.3 hPa South 5.6 km/h 2.9 km/h 77 % 0 mm
18:59 11.9 °C 8.1 °C 1026.3 hPa South 5.6 km/h 2.1 km/h 77 % 0 mm
19:04 11.7 °C 8.2 °C 1026.3 hPa South 5.6 km/h 4.2 km/h 79 % 0 mm
19:09 11.6 °C 8.1 °C 1026.3 hPa South 5.6 km/h 4.2 km/h 79 % 0 mm
19:14 11.4 °C 8.1 °C 1026.3 hPa South 3.7 km/h 2.4 km/h 80 % 0 mm
19:19 11.2 °C 7.8 °C 1026.3 hPa South 1.9 km/h 1 km/h 80 % 0 mm
19:24 10.9 °C 7.8 °C 1026.3 hPa South 5.6 km/h 2.6 km/h 81 % 0 mm
19:29 10.8 °C 7.8 °C 1026.3 hPa South 3.7 km/h 0.3 km/h 82 % 0 mm
19:34 10.6 °C 7.7 °C 1026.6 hPa South 3.7 km/h 1.6 km/h 82 % 0 mm
19:39 10.5 °C 7.7 °C 1026.6 hPa South 3.7 km/h 1.4 km/h 83 % 0 mm
19:44 10.3 °C 7.6 °C 1026.6 hPa South 1.9 km/h 0.5 km/h 83 % 0 mm
19:49 10.2 °C 7.4 °C 1026.6 hPa South 5.6 km/h 2.9 km/h 83 % 0 mm
19:54 10.1 °C 7.6 °C 1026.6 hPa North 3.7 km/h 1.4 km/h 84 % 0 mm
19:59 10.1 °C 7.7 °C 1026.6 hPa South 5.6 km/h 1.4 km/h 85 % 0 mm
20:04 10 °C 7.6 °C 1026.6 hPa South 5.6 km/h 2.3 km/h 85 % 0 mm
20:09 10 °C 7.8 °C 1026.6 hPa South 5.6 km/h 4 km/h 86 % 0 mm
20:14 10.2 °C 8 °C 1026.6 hPa South 9.3 km/h 3.2 km/h 86 % 0 mm
20:19 10.4 °C 8.2 °C 1026.6 hPa South 7.4 km/h 4.3 km/h 86 % 0 mm
20:24 10.6 °C 8.2 °C 1026.6 hPa South 9.3 km/h 5 km/h 85 % 0 mm
20:29 10.8 °C 8.2 °C 1026.6 hPa South 5.6 km/h 2.9 km/h 84 % 0 mm
20:34 10.8 °C 8.2 °C 1026.6 hPa South 6.4 km/h 5 km/h 84 % 0 mm
20:39 10.8 °C 8.1 °C 1027 hPa North 5.6 km/h 4.5 km/h 83 % 0 mm
20:44 10.8 °C 8.1 °C 1027 hPa South 8 km/h 6.6 km/h 83 % 0 mm
20:49 10.8 °C 8 °C 1027 hPa South 7.4 km/h 5.1 km/h 83 % 0 mm
20:54 10.7 °C 7.9 °C 1027 hPa South 8 km/h 5.3 km/h 83 % 0 mm
20:59 10.7 °C 7.7 °C 1027 hPa South 7.4 km/h 5 km/h 82 % 0 mm
21:04 10.7 °C 7.9 °C 1027 hPa South 7.4 km/h 5.1 km/h 83 % 0 mm
21:09 10.6 °C 7.7 °C 1027 hPa North 7.4 km/h 4.5 km/h 82 % 0 mm
21:14 10.5 °C 7.7 °C 1027 hPa North 5.6 km/h 3.9 km/h 83 % 0 mm
21:19 10.4 °C 7.7 °C 1027 hPa South 5.6 km/h 5.8 km/h 83 % 0 mm
21:24 10.4 °C 7.7 °C 1027 hPa South 7.4 km/h 5.3 km/h 83 % 0 mm
21:29 10.4 °C 7.6 °C 1027 hPa South 7.4 km/h 4 km/h 83 % 0 mm
21:34 10.4 °C 7.8 °C 1027 hPa South 7.4 km/h 4.5 km/h 84 % 0 mm
21:39 10.4 °C 7.8 °C 1027.3 hPa North 7.4 km/h 5.5 km/h 84 % 0 mm
21:44 10.4 °C 7.8 °C 1027 hPa South 5.6 km/h 3.2 km/h 84 % 0 mm
21:49 10.4 °C 7.8 °C 1027 hPa South 5.6 km/h 3.5 km/h 84 % 0 mm
21:54 10.4 °C 8.1 °C 1027 hPa South 5.6 km/h 4.7 km/h 85 % 0 mm
21:59 10.4 °C 8.1 °C 1027 hPa South 8 km/h 4.3 km/h 85 % 0 mm
22:04 10.4 °C 8.1 °C 1027.3 hPa South 7.4 km/h 5.6 km/h 85 % 0 mm
22:09 10.4 °C 8.1 °C 1027.3 hPa South 4.8 km/h 3.4 km/h 85 % 0 mm
22:14 10.4 °C 8.1 °C 1027.3 hPa South 5.6 km/h 1.6 km/h 85 % 0 mm
22:19 10.4 °C 8.1 °C 1027.3 hPa South 5.6 km/h 2.9 km/h 85 % 0 mm
22:24 10.4 °C 8.2 °C 1027 hPa South 1.9 km/h   86 % 0 mm
22:29 10.4 °C 8.2 °C 1027 hPa South 1.6 km/h 0.2 km/h 86 % 0 mm
22:34 10.4 °C 8.2 °C 1027.3 hPa South 5.6 km/h 3.1 km/h 86 % 0 mm
22:39 10.4 °C 8.2 °C 1027.3 hPa South 6.4 km/h 2.6 km/h 86 % 0 mm
22:44 10.4 °C 8.2 °C 1027.3 hPa South 5.6 km/h 1.3 km/h 86 % 0 mm
22:49 10.5 °C 8.4 °C 1027.3 hPa South 5.6 km/h 2.9 km/h 87 % 0 mm
22:54 10.6 °C 8.5 °C 1027 hPa South 5.6 km/h 2.9 km/h 87 % 0 mm
22:59 10.6 °C 8.5 °C 1027 hPa South 5.6 km/h 3.1 km/h 87 % 0 mm
23:04 10.6 °C 8.6 °C 1027 hPa North 7.4 km/h 4.2 km/h 87 % 0 mm
23:09 10.6 °C 8.4 °C 1027 hPa South 5.6 km/h 4 km/h 86 % 0 mm
23:14 10.6 °C 8.4 °C 1027.3 hPa South 5.6 km/h 6.3 km/h 86 % 0 mm
23:19 10.7 °C 8.4 °C 1027.3 hPa South 5.6 km/h 5.1 km/h 86 % 0 mm
23:24 10.7 °C 8.4 °C 1027.3 hPa South 7.4 km/h 3.4 km/h 86 % 0 mm
23:29 10.7 °C 8.4 °C 1027.3 hPa South 6.4 km/h 5 km/h 86 % 0 mm
23:34 10.7 °C 8.4 °C 1027.3 hPa South 5.6 km/h 3.7 km/h 86 % 0 mm
23:39 10.6 °C 8.4 °C 1027.3 hPa South 5.6 km/h 1 km/h 86 % 0 mm
23:44 10.4 °C 8.2 °C 1027.3 hPa South 5.6 km/h 3.2 km/h 86 % 0 mm
23:49 10.3 °C 8.1 °C 1027.3 hPa South 5.6 km/h 2.3 km/h 86 % 0 mm
23:54 10.2 °C 8 °C 1027.3 hPa South 3.7 km/h 1.3 km/h 86 % 0 mm
23:59 10.1 °C 7.9 °C 1027.3 hPa South 1.6 km/h 0.3 km/h 86 % 0 mm
Ararat Weather
Compliments of Weather Underground - 2.25 mb
Click here to send mail.


ABOUT

Live weather data from Ararat, Victoria, Australia, 3377
Data uploaded from Cumulus every 5 minutes to Weather Underground.
This site then downloads the raw data for formatting and display.
Metric and imperial data can be displayed. Graphs and historical data available.
Includes Sun and Moon times and rain image live from BOM.

Check out Ararat Weather on Facebook, Twitter and Google +

Help support ongoing costs by checking out the ads





Follow @AraratWeather